createdAt,value
2022-12-11T00:00:38.808Z,19.92
2022-12-11T00:03:42.933Z,19.10
2022-12-11T00:06:50.332Z,18.77
2022-12-11T00:09:54.636Z,18.75
2022-12-11T00:12:59.012Z,17.33
2022-12-11T00:16:03.236Z,18.52
2022-12-11T00:19:07.941Z,19.38
2022-12-11T00:22:11.830Z,19.05
2022-12-11T00:25:15.847Z,21.45
2022-12-11T00:28:20.165Z,19.73
2022-12-11T00:31:25.036Z,19.17
2022-12-11T00:34:29.381Z,21.25
2022-12-11T00:37:33.598Z,19.23
2022-12-11T00:40:37.658Z,20.67
2022-12-11T00:43:42.432Z,20.17
2022-12-11T00:46:46.549Z,21.08
2022-12-11T00:49:50.568Z,18.80
2022-12-11T00:52:54.482Z,20.33
2022-12-11T00:55:58.672Z,18.23
2022-12-11T00:59:02.924Z,19.00
2022-12-11T01:02:07.185Z,17.08
2022-12-11T01:05:11.500Z,18.30
2022-12-11T01:08:15.588Z,17.45
2022-12-11T01:11:20.896Z,18.27
2022-12-11T01:14:26.870Z,18.27
2022-12-11T01:17:30.977Z,19.02
2022-12-11T01:20:35.075Z,18.27
2022-12-11T01:23:40.006Z,16.20
2022-12-11T01:26:44.199Z,18.80
2022-12-11T01:29:49.513Z,17.92
2022-12-11T01:32:53.869Z,18.65
2022-12-11T01:35:57.906Z,16.23
2022-12-11T01:39:01.606Z,18.50
2022-12-11T01:42:10.235Z,18.92
2022-12-11T01:45:44.730Z,18.58
2022-12-11T01:48:49.311Z,20.98
2022-12-11T01:51:59.021Z,16.90
2022-12-11T01:55:03.870Z,16.80
2022-12-11T01:58:08.782Z,18.70
2022-12-11T02:01:18.611Z,18.20
2022-12-11T02:04:23.341Z,17.80
2022-12-11T02:07:28.264Z,18.08
2022-12-11T02:11:06.127Z,17.90
2022-12-11T02:14:47.006Z,19.65
2022-12-11T02:18:04.715Z,18.95
2022-12-11T02:21:37.623Z,17.85
2022-12-11T02:24:57.902Z,20.90
2022-12-11T02:28:31.708Z,17.80
2022-12-11T02:34:46.993Z,19.60
2022-12-11T02:37:57.616Z,20.13
2022-12-11T02:41:04.225Z,19.80
2022-12-11T02:44:10.606Z,19.23
2022-12-11T02:47:17.356Z,19.42
2022-12-11T02:50:23.624Z,21.77
2022-12-11T02:53:31.617Z,21.80
2022-12-11T02:56:47.168Z,19.50
2022-12-11T02:59:50.917Z,20.00
2022-12-11T03:02:54.786Z,21.75
2022-12-11T03:05:58.821Z,20.33
2022-12-11T03:09:05.359Z,22.60
2022-12-11T03:12:15.125Z,20.33
2022-12-11T03:15:21.811Z,20.55
2022-12-11T03:18:39.518Z,18.42
2022-12-11T03:21:53.593Z,18.98
2022-12-11T03:25:04.463Z,18.60
2022-12-11T03:28:17.768Z,19.20
2022-12-11T03:34:37.676Z,19.05
2022-12-11T03:37:44.664Z,16.52
2022-12-11T03:40:52.124Z,21.77
2022-12-11T03:43:58.906Z,17.15
2022-12-11T03:47:07.160Z,20.73
2022-12-11T03:50:13.617Z,18.48
2022-12-11T03:53:19.143Z,16.98
2022-12-11T03:56:26.700Z,19.10
2022-12-11T03:59:30.826Z,18.55
2022-12-11T04:02:34.994Z,18.33
2022-12-11T04:05:41.346Z,16.88
2022-12-11T04:08:45.065Z,18.85
2022-12-11T04:11:48.863Z,17.40
2022-12-11T04:15:01.842Z,17.33
2022-12-11T04:18:24.735Z,17.85
2022-12-11T04:21:47.230Z,19.63
2022-12-11T04:24:51.372Z,17.27
2022-12-11T04:27:55.835Z,16.90
2022-12-11T04:31:00.484Z,18.13
2022-12-11T04:34:04.879Z,19.27
2022-12-11T04:37:08.617Z,18.45
2022-12-11T04:40:15.032Z,16.33
2022-12-11T04:43:19.291Z,16.00
2022-12-11T04:46:24.713Z,16.23
2022-12-11T04:49:28.731Z,17.33
2022-12-11T04:52:32.981Z,17.08
2022-12-11T04:55:36.864Z,15.75
2022-12-11T04:58:42.893Z,16.15
2022-12-11T05:01:47.678Z,17.35
2022-12-11T05:04:52.433Z,15.13
2022-12-11T05:07:56.430Z,17.10
2022-12-11T05:11:02.800Z,16.17
2022-12-11T05:14:06.915Z,14.35
2022-12-11T05:17:10.821Z,15.10
2022-12-11T05:20:14.871Z,14.18
2022-12-11T05:23:18.640Z,14.60
2022-12-11T05:26:22.753Z,14.40
2022-12-11T05:29:26.860Z,14.13
2022-12-11T05:32:30.745Z,14.02
2022-12-11T05:35:34.706Z,15.93
2022-12-11T05:38:38.947Z,15.68
2022-12-11T05:41:42.883Z,14.65
2022-12-11T05:44:46.896Z,13.60
2022-12-11T05:47:51.227Z,15.05
2022-12-11T05:50:59.908Z,16.73
2022-12-11T05:54:04.226Z,14.98
2022-12-11T05:57:08.599Z,15.02
2022-12-11T06:00:13.285Z,15.77
2022-12-11T06:03:17.444Z,15.15
2022-12-11T06:06:22.164Z,14.05
2022-12-11T06:09:26.267Z,16.25
2022-12-11T06:12:31.024Z,16.10
2022-12-11T06:15:35.184Z,15.02
2022-12-11T06:18:41.781Z,17.60
2022-12-11T06:21:48.745Z,14.02
2022-12-11T06:24:52.834Z,16.92
2022-12-11T06:27:56.995Z,15.13
2022-12-11T06:31:01.359Z,17.00
2022-12-11T06:34:05.178Z,16.00
2022-12-11T06:37:09.264Z,19.95
2022-12-11T06:40:13.435Z,16.98
2022-12-11T06:43:17.332Z,15.85
2022-12-11T06:46:21.401Z,15.85
2022-12-11T06:49:25.246Z,15.65
2022-12-11T06:52:29.591Z,18.92
2022-12-11T06:55:37.278Z,16.13
2022-12-11T06:58:42.878Z,16.52
2022-12-11T07:01:47.021Z,15.38
2022-12-11T07:04:55.102Z,15.43
2022-12-11T07:07:59.682Z,16.98
2022-12-11T07:11:07.803Z,15.55
2022-12-11T07:14:11.792Z,14.88
2022-12-11T07:17:16.315Z,14.35
2022-12-11T07:20:20.687Z,15.77
2022-12-11T07:23:24.860Z,16.88
2022-12-11T07:26:29.449Z,14.82
2022-12-11T07:29:33.309Z,14.68
2022-12-11T07:32:37.483Z,14.77
2022-12-11T07:35:42.054Z,16.15
2022-12-11T07:38:46.285Z,15.27
2022-12-11T07:41:50.284Z,15.23
2022-12-11T07:44:54.411Z,14.95
2022-12-11T07:47:59.070Z,14.98
2022-12-11T07:51:15.087Z,15.02
2022-12-11T07:54:18.928Z,15.25
2022-12-11T07:57:23.058Z,16.15
2022-12-11T08:00:27.321Z,16.02
2022-12-11T08:03:31.703Z,16.10
2022-12-11T08:06:38.183Z,20.17
2022-12-11T08:09:42.197Z,19.90
2022-12-11T08:12:46.022Z,17.10
2022-12-11T08:15:50.101Z,16.38
2022-12-11T08:18:54.637Z,15.98
2022-12-11T08:21:58.765Z,17.70
2022-12-11T08:25:02.752Z,17.83
2022-12-11T08:28:07.040Z,19.42
2022-12-11T08:31:13.417Z,16.30
2022-12-11T08:34:17.537Z,19.10
2022-12-11T08:37:21.492Z,15.88
2022-12-11T08:40:25.161Z,16.85
2022-12-11T08:43:29.433Z,17.13
2022-12-11T08:46:33.933Z,16.88
2022-12-11T08:49:37.851Z,16.00
2022-12-11T08:52:42.172Z,18.05
2022-12-11T08:55:45.977Z,19.00
2022-12-11T08:58:50.759Z,23.20
2022-12-11T09:01:55.878Z,16.67
2022-12-11T09:04:59.963Z,15.60
2022-12-11T09:08:04.368Z,18.70
2022-12-11T09:11:11.804Z,36.92
2022-12-11T09:14:16.262Z,17.95
2022-12-11T09:17:20.390Z,20.73
2022-12-11T09:20:24.592Z,18.25
2022-12-11T09:23:29.476Z,19.10
2022-12-11T09:26:33.413Z,18.27
2022-12-11T09:29:38.458Z,17.15
2022-12-11T09:32:42.183Z,17.65
2022-12-11T09:35:46.510Z,17.23
2022-12-11T09:38:51.389Z,17.38
2022-12-11T09:42:05.130Z,17.83
2022-12-11T09:45:14.844Z,19.50
2022-12-11T09:48:24.004Z,17.95
2022-12-11T09:51:42.877Z,19.38
2022-12-11T09:54:51.083Z,20.38
2022-12-11T09:58:08.210Z,17.38
2022-12-11T10:01:38.010Z,17.20
2022-12-11T10:05:00.747Z,16.95
2022-12-11T10:08:37.997Z,18.23
2022-12-11T10:11:56.760Z,17.45
2022-12-11T10:15:23.899Z,18.95
2022-12-11T10:18:29.149Z,18.23
2022-12-11T10:21:40.299Z,14.10
2022-12-11T10:28:20.141Z,15.68
2022-12-11T10:31:59.751Z,18.88
2022-12-11T10:35:06.103Z,20.40
2022-12-11T10:38:23.557Z,18.85
2022-12-11T10:41:38.321Z,18.15
2022-12-11T10:44:42.369Z,17.55
2022-12-11T10:47:46.834Z,18.05
2022-12-11T10:51:07.096Z,17.42
2022-12-11T10:54:31.907Z,18.65
2022-12-11T10:57:38.591Z,20.27
2022-12-11T11:00:42.731Z,20.88
2022-12-11T11:04:06.665Z,18.55
2022-12-11T11:10:19.352Z,17.92
2022-12-11T11:13:26.083Z,20.40
2022-12-11T11:16:31.143Z,18.83
2022-12-11T11:19:36.827Z,19.40
2022-12-11T11:22:53.992Z,19.33
2022-12-11T11:26:00.951Z,18.20
2022-12-11T11:29:05.451Z,18.25
2022-12-11T11:32:39.820Z,19.80
2022-12-11T11:35:54.782Z,19.20
2022-12-11T11:39:17.509Z,19.60
2022-12-11T11:42:30.142Z,18.80
2022-12-11T11:45:55.144Z,23.45
2022-12-11T11:49:35.085Z,19.25
2022-12-11T11:52:45.936Z,27.08
2022-12-11T11:56:16.254Z,27.38
2022-12-11T11:59:36.498Z,22.33
2022-12-11T12:02:41.225Z,23.45
2022-12-11T12:05:57.589Z,20.58
2022-12-11T12:09:29.620Z,21.23
2022-12-11T12:12:39.568Z,18.98
2022-12-11T12:15:58.516Z,21.83
2022-12-11T12:19:14.154Z,17.38
2022-12-11T12:22:48.005Z,21.58
2022-12-11T12:26:06.601Z,19.67
2022-12-11T12:29:18.417Z,21.27
2022-12-11T12:32:43.612Z,21.00
2022-12-11T12:36:06.581Z,21.75
2022-12-11T12:39:22.295Z,22.50
2022-12-11T12:42:52.334Z,21.05
2022-12-11T12:45:56.155Z,20.85
2022-12-11T12:49:02.265Z,22.00
2022-12-11T12:52:13.380Z,23.05
2022-12-11T12:55:27.148Z,23.67
2022-12-11T12:58:45.162Z,22.10
2022-12-11T13:01:55.135Z,23.40
2022-12-11T13:05:07.362Z,23.88
2022-12-11T13:08:13.070Z,21.98
2022-12-11T13:11:20.020Z,22.15
2022-12-11T13:14:28.455Z,20.85
2022-12-11T13:17:39.074Z,24.75
2022-12-11T13:20:48.370Z,23.27
2022-12-11T13:23:52.870Z,22.45
2022-12-11T13:27:11.754Z,22.40
2022-12-11T13:30:15.520Z,25.17
2022-12-11T13:33:22.923Z,24.88
2022-12-11T13:36:31.764Z,24.98
2022-12-11T13:39:39.504Z,25.70
2022-12-11T13:42:59.530Z,25.85
2022-12-11T13:46:09.287Z,21.70
2022-12-11T13:49:26.617Z,23.30
2022-12-11T13:52:31.619Z,25.38
2022-12-11T13:55:36.059Z,23.58
2022-12-11T13:58:40.547Z,23.63
2022-12-11T14:01:44.995Z,27.35
2022-12-11T14:04:51.768Z,22.15
2022-12-11T14:07:58.621Z,27.00
2022-12-11T14:11:03.253Z,24.98
2022-12-11T14:14:17.807Z,26.20
2022-12-11T14:17:26.136Z,23.17
2022-12-11T14:20:32.820Z,24.38
2022-12-11T14:23:37.678Z,23.63
2022-12-11T14:26:51.044Z,22.98
2022-12-11T14:33:04.480Z,25.92
2022-12-11T14:36:08.836Z,23.45
2022-12-11T14:39:34.299Z,24.70
2022-12-11T14:42:47.894Z,24.73
2022-12-11T14:45:57.847Z,27.58
2022-12-11T14:49:07.415Z,27.05
2022-12-11T14:52:19.106Z,25.83
2022-12-11T14:55:30.089Z,30.05
2022-12-11T14:58:39.654Z,28.40
2022-12-11T15:01:43.722Z,29.40
2022-12-11T15:05:01.663Z,27.55
2022-12-11T15:08:12.574Z,25.73
2022-12-11T15:11:17.936Z,27.40
2022-12-11T15:14:23.206Z,28.50
2022-12-11T15:17:28.445Z,26.25
2022-12-11T15:20:32.919Z,26.05
2022-12-11T15:24:00.674Z,28.98
2022-12-11T15:27:05.880Z,26.98
2022-12-11T15:30:26.578Z,26.33
2022-12-11T15:33:34.225Z,25.17
2022-12-11T15:36:38.679Z,25.77
2022-12-11T15:39:42.710Z,27.30
2022-12-11T15:42:47.315Z,24.73
2022-12-11T15:45:51.670Z,22.90
2022-12-11T15:48:57.383Z,27.52
2022-12-11T15:52:01.594Z,25.85
2022-12-11T15:55:06.065Z,24.13
2022-12-11T15:58:15.893Z,26.40
2022-12-11T16:01:19.905Z,26.85
2022-12-11T16:04:24.012Z,25.70
2022-12-11T16:07:28.234Z,24.17
2022-12-11T16:10:32.735Z,28.77
2022-12-11T16:13:37.033Z,26.77
2022-12-11T16:16:40.889Z,25.70
2022-12-11T16:19:44.955Z,25.40
2022-12-11T16:22:49.234Z,25.70
2022-12-11T16:25:53.709Z,25.40
2022-12-11T16:28:57.803Z,25.08
2022-12-11T16:32:01.932Z,27.98
2022-12-11T16:35:06.500Z,27.42
2022-12-11T16:38:11.587Z,25.02
2022-12-11T16:41:15.828Z,26.15
2022-12-11T16:44:21.636Z,27.48
2022-12-11T16:47:26.100Z,27.52
2022-12-11T16:50:30.263Z,27.35
2022-12-11T16:53:34.495Z,28.80
2022-12-11T16:56:39.136Z,27.40
2022-12-11T16:59:43.685Z,30.08
2022-12-11T17:02:48.363Z,28.95
2022-12-11T17:05:52.249Z,31.38
2022-12-11T17:08:56.238Z,31.90
2022-12-11T17:12:00.648Z,29.17
2022-12-11T17:15:05.198Z,29.50
2022-12-11T17:18:10.167Z,31.27
2022-12-11T17:21:16.238Z,30.98
2022-12-11T17:24:20.249Z,33.05
2022-12-11T17:27:24.124Z,32.95
2022-12-11T17:30:28.305Z,32.70
2022-12-11T17:33:32.509Z,31.35
2022-12-11T17:36:36.812Z,34.78
2022-12-11T17:39:40.840Z,35.63
2022-12-11T17:42:45.129Z,30.83
2022-12-11T17:45:52.499Z,32.45
2022-12-11T17:48:59.458Z,34.10
2022-12-11T17:52:03.835Z,28.85
2022-12-11T17:55:09.671Z,30.85
2022-12-11T17:58:20.028Z,29.77
2022-12-11T18:01:24.401Z,32.10
2022-12-11T18:04:28.554Z,37.03
2022-12-11T18:07:32.713Z,34.22
2022-12-11T18:10:36.953Z,32.78
2022-12-11T18:13:42.514Z,36.70
2022-12-11T18:16:46.607Z,35.33
2022-12-11T18:19:51.159Z,37.20
2022-12-11T18:22:55.568Z,36.60
2022-12-11T18:26:00.355Z,35.35
2022-12-11T18:29:05.302Z,39.72
2022-12-11T18:32:09.033Z,35.85
2022-12-11T18:35:13.145Z,33.83
2022-12-11T18:38:17.891Z,34.58
2022-12-11T18:41:21.783Z,41.70
2022-12-11T18:44:26.191Z,37.33
2022-12-11T18:47:30.739Z,38.72
2022-12-11T18:50:35.161Z,40.15
2022-12-11T18:53:39.460Z,40.35
2022-12-11T18:56:43.825Z,42.28
2022-12-11T18:59:53.492Z,40.55
2022-12-11T19:02:57.196Z,44.45
2022-12-11T19:06:19.144Z,38.05
2022-12-11T19:09:23.469Z,43.35
2022-12-11T19:12:27.638Z,40.00
2022-12-11T19:15:31.559Z,39.28
2022-12-11T19:18:35.699Z,39.85
2022-12-11T19:21:40.484Z,42.95
2022-12-11T19:24:44.622Z,40.90
2022-12-11T19:27:50.110Z,45.88
2022-12-11T19:30:56.990Z,43.72
2022-12-11T19:34:02.093Z,48.45
2022-12-11T19:37:06.065Z,40.53
2022-12-11T19:40:10.525Z,41.15
2022-12-11T19:43:14.711Z,43.97
2022-12-11T19:46:19.883Z,44.55
2022-12-11T19:49:23.928Z,45.38
2022-12-11T19:52:28.180Z,44.78
2022-12-11T19:55:32.789Z,46.10
2022-12-11T19:58:37.508Z,48.45
2022-12-11T20:01:42.361Z,41.97
2022-12-11T20:04:46.221Z,45.13
2022-12-11T20:07:50.127Z,43.72
2022-12-11T20:10:54.217Z,45.78
2022-12-11T20:13:58.685Z,46.03
2022-12-11T20:17:13.379Z,44.03
2022-12-11T20:20:18.971Z,42.83
2022-12-11T20:23:23.140Z,46.90
2022-12-11T20:26:27.462Z,46.63
2022-12-11T20:29:31.444Z,47.85
2022-12-11T20:32:36.833Z,45.08
2022-12-11T20:35:41.087Z,49.03
2022-12-11T20:38:46.108Z,43.10
2022-12-11T20:41:50.232Z,51.95
2022-12-11T20:44:54.783Z,49.03
2022-12-11T20:47:59.005Z,47.35
2022-12-11T20:51:05.308Z,49.30
2022-12-11T20:54:09.567Z,49.45
2022-12-11T20:57:16.311Z,55.55
2022-12-11T21:00:20.622Z,46.92
2022-12-11T21:03:24.664Z,52.08
2022-12-11T21:06:32.673Z,54.38
2022-12-11T21:09:39.080Z,50.15
2022-12-11T21:12:43.932Z,53.38
2022-12-11T21:15:52.404Z,51.30
2022-12-11T21:18:57.461Z,47.95
2022-12-11T21:22:02.187Z,47.47
2022-12-11T21:25:06.633Z,47.88
2022-12-11T21:28:10.842Z,47.58
2022-12-11T21:31:17.830Z,47.58
2022-12-11T21:34:25.315Z,50.97
2022-12-11T21:37:30.432Z,46.30
2022-12-11T21:40:34.384Z,50.95
2022-12-11T21:43:52.559Z,47.95
2022-12-11T21:47:02.752Z,46.55
2022-12-11T21:50:07.092Z,48.70
2022-12-11T21:53:11.516Z,50.10
2022-12-11T21:56:18.067Z,52.33
2022-12-11T21:59:22.083Z,43.80
2022-12-11T22:02:26.315Z,48.58
2022-12-11T22:05:30.360Z,47.20
2022-12-11T22:08:34.663Z,49.45
2022-12-11T22:11:40.036Z,46.45
2022-12-11T22:14:43.839Z,48.85
2022-12-11T22:17:48.012Z,43.92
2022-12-11T22:20:55.348Z,47.20
2022-12-11T22:23:59.933Z,49.25
2022-12-11T22:27:03.984Z,50.45
2022-12-11T22:30:08.882Z,49.42
2022-12-11T22:33:13.080Z,52.17
2022-12-11T22:36:20.030Z,47.33
2022-12-11T22:39:24.681Z,45.95
2022-12-11T22:42:28.629Z,47.53
2022-12-11T22:45:33.361Z,44.25
2022-12-11T22:48:37.489Z,49.00
2022-12-11T22:51:41.457Z,46.92
2022-12-11T22:54:45.967Z,44.97
2022-12-11T22:57:50.023Z,46.20
2022-12-11T23:00:54.386Z,47.40
2022-12-11T23:03:58.619Z,44.58
2022-12-11T23:07:02.998Z,50.50
2022-12-11T23:10:08.959Z,47.08
2022-12-11T23:13:13.123Z,45.13
2022-12-11T23:16:17.819Z,45.88
2022-12-11T23:19:25.571Z,45.55
2022-12-11T23:22:30.454Z,42.15
2022-12-11T23:25:34.714Z,43.50
2022-12-11T23:28:39.722Z,46.60
2022-12-11T23:31:43.872Z,43.42
2022-12-11T23:34:47.906Z,42.17
2022-12-11T23:37:52.267Z,42.88
2022-12-11T23:40:58.612Z,47.05
2022-12-11T23:44:03.044Z,45.30
2022-12-11T23:47:06.898Z,44.80
2022-12-11T23:50:11.011Z,43.65
2022-12-11T23:53:15.459Z,41.53
2022-12-11T23:56:24.894Z,44.30
2022-12-11T23:59:29.248Z,42.55
